Time;durP1;ratioP1;P1;durP2;ratioP2;P2;SDS_P1;SDS_P2;PMS_P1;PMS_P2;Temp;Humidity;BMP_temperature;BMP_pressure;BME280_temperature;BME280_humidity;BME280_pressure;Samples;Min_cycle;Max_cycle;Signal;HPM_P1;HPM_P2
2022/04/23 00:01:47;;;;;;;27.02;5.35;;;15.10;99.90;;;;;;5132309;27;20034;-78
2022/04/23 00:04:16;;;;;;;20.08;4.80;;;15.10;99.90;;;;;;5132316;27;20072;-78
2022/04/23 00:06:43;;;;;;;29.92;6.35;;;15.10;99.90;;;;;;5115656;27;20030;-77
2022/04/23 00:09:09;;;;;;;22.15;4.90;;;15.10;99.90;;;;;;5131597;27;20042;-78
2022/04/23 00:11:35;;;;;;;19.92;4.68;;;15.00;99.90;;;;;;5132533;27;20032;-78
2022/04/23 00:14:01;;;;;;;23.13;4.80;;;15.00;99.90;;;;;;5132269;27;20608;-78
2022/04/23 00:16:28;;;;;;;27.52;6.10;;;15.00;99.90;;;;;;5132435;27;20023;-78
2022/04/23 00:18:53;;;;;;;20.67;4.72;;;15.00;99.90;;;;;;5131693;27;20581;-78
2022/04/23 00:21:19;;;;;;;19.65;5.03;;;14.90;99.90;;;;;;5132902;27;20106;-78
2022/04/23 00:23:47;;;;;;;22.90;6.30;;;14.90;99.90;;;;;;5132317;27;20015;-78
2022/04/23 00:26:16;;;;;;;28.15;6.00;;;14.90;99.90;;;;;;5132019;27;20102;-78
2022/04/23 00:28:42;;;;;;;24.08;5.10;;;14.80;99.90;;;;;;5131951;27;20489;-78
2022/04/23 00:31:08;;;;;;;26.58;5.70;;;14.80;99.90;;;;;;5132128;27;20050;-78
2022/04/23 00:33:37;;;;;;;22.08;5.07;;;14.80;99.90;;;;;;5114644;28;20023;-78
2022/04/23 00:36:10;;;;;;;27.70;5.20;;;14.80;99.90;;;;;;5131731;27;20053;-78
2022/04/23 00:38:39;;;;;;;23.23;5.43;;;14.80;99.90;;;;;;5131765;27;20015;-78
2022/04/23 00:41:05;;;;;;;32.22;6.63;;;14.80;99.90;;;;;;5131569;27;20035;-78
2022/04/23 00:43:35;;;;;;;23.25;5.32;;;14.80;99.90;;;;;;5132208;27;20023;-78
2022/04/23 00:46:02;;;;;;;25.15;6.40;;;14.80;99.90;;;;;;5115455;27;20028;-78
2022/04/23 00:48:29;;;;;;;32.40;6.53;;;14.80;99.90;;;;;;5132480;27;20409;-77
2022/04/23 00:50:57;;;;;;;29.77;6.10;;;14.80;99.90;;;;;;5132433;27;20030;-77
2022/04/23 00:53:23;;;;;;;34.42;6.45;;;14.80;99.90;;;;;;5136239;27;20031;-77
2022/04/23 00:55:52;;;;;;;25.98;5.45;;;14.80;99.90;;;;;;5131644;27;20474;-77
2022/04/23 00:58:19;;;;;;;28.17;6.28;;;14.90;99.90;;;;;;5135976;27;20039;-77
2022/04/23 01:00:45;;;;;;;26.13;5.88;;;14.80;99.90;;;;;;5135907;27;20011;-77
2022/04/23 01:03:14;;;;;;;41.40;6.63;;;14.80;99.90;;;;;;5135963;27;20106;-76
2022/04/23 01:05:47;;;;;;;31.92;6.78;;;14.80;99.90;;;;;;5122616;27;20054;-78
2022/04/23 01:08:15;;;;;;;31.52;6.68;;;14.80;99.90;;;;;;5128919;27;20066;-76
2022/04/23 01:10:45;;;;;;;37.08;6.47;;;14.80;99.90;;;;;;5135565;27;20011;-76
2022/04/23 01:13:14;;;;;;;31.70;6.90;;;14.80;99.90;;;;;;5135958;27;20043;-78
2022/04/23 01:16:04;;;;;;;31.60;8.13;;;14.80;99.90;;;;;;5119303;27;20020;-77
2022/04/23 01:18:31;;;;;;;36.25;6.68;;;14.80;99.90;;;;;;5136121;27;20026;-77
2022/04/23 01:21:04;;;;;;;31.55;6.65;;;14.80;99.90;;;;;;5120225;27;20067;-77
2022/04/23 01:23:30;;;;;;;42.08;7.57;;;14.80;99.90;;;;;;5123832;27;20024;-77
2022/04/23 01:25:57;;;;;;;31.65;6.95;;;14.80;99.90;;;;;;5126427;27;20024;-77
2022/04/23 01:28:25;;;;;;;29.60;6.15;;;14.80;99.90;;;;;;5135305;27;20023;-77
2022/04/23 01:30:53;;;;;;;34.50;7.72;;;14.80;99.90;;;;;;5135208;27;20038;-77
2022/04/23 01:33:20;;;;;;;27.60;6.50;;;14.80;99.90;;;;;;5135968;27;20039;-77
2022/04/23 01:35:46;;;;;;;41.45;7.22;;;14.70;99.90;;;;;;5135129;27;20031;-77
2022/04/23 01:38:12;;;;;;;35.30;6.57;;;14.80;99.90;;;;;;5135171;27;20031;-77
2022/04/23 01:40:38;;;;;;;32.45;6.20;;;14.80;99.90;;;;;;5135632;27;20027;-78
2022/04/23 01:43:04;;;;;;;28.75;6.70;;;14.80;99.90;;;;;;5118553;27;20076;-78
2022/04/23 01:45:30;;;;;;;25.02;6.63;;;14.90;99.90;;;;;;5135628;27;20260;-77
2022/04/23 01:47:56;;;;;;;35.17;6.72;;;14.80;99.90;;;;;;5134593;27;20030;-78
2022/04/23 01:50:22;;;;;;;33.83;7.85;;;14.80;99.90;;;;;;5124611;27;20122;-78
2022/04/23 01:52:48;;;;;;;35.70;7.43;;;14.90;99.90;;;;;;5123019;27;20059;-77
2022/04/23 01:55:18;;;;;;;35.28;7.13;;;14.90;99.90;;;;;;5123934;27;20072;-77
2022/04/23 01:57:46;;;;;;;37.25;7.43;;;14.90;99.90;;;;;;5134867;27;20029;-78
2022/04/23 02:00:15;;;;;;;40.08;7.40;;;14.90;99.90;;;;;;5135619;27;20026;-77
2022/04/23 02:02:46;;;;;;;35.95;7.30;;;15.00;99.90;;;;;;5125570;27;20028;-77
2022/04/23 02:05:12;;;;;;;36.13;6.47;;;15.00;99.90;;;;;;5127730;27;20015;-78
2022/04/23 02:07:44;;;;;;;33.45;7.50;;;15.00;99.90;;;;;;5134769;27;20028;-77
2022/04/23 02:10:14;;;;;;;30.23;6.65;;;15.00;99.90;;;;;;5119170;27;20046;-77
2022/04/23 02:12:41;;;;;;;39.28;7.88;;;15.00;99.90;;;;;;5134711;27;20035;-77
2022/04/23 02:15:12;;;;;;;36.17;7.22;;;15.00;99.90;;;;;;5134427;27;20023;-77
2022/04/23 02:17:40;;;;;;;33.45;7.07;;;15.00;99.90;;;;;;5134330;27;20019;-78
2022/04/23 02:20:16;;;;;;;37.58;7.07;;;15.00;99.90;;;;;;5134649;27;20122;-77
2022/04/23 02:22:44;;;;;;;33.88;7.88;;;15.00;99.90;;;;;;5134374;27;20031;-78
2022/04/23 02:25:11;;;;;;;37.20;7.95;;;15.00;99.90;;;;;;5134655;27;20023;-78
2022/04/23 02:27:48;;;;;;;39.05;7.63;;;15.00;99.90;;;;;;5134914;27;20148;-78
2022/04/23 02:30:16;;;;;;;36.08;7.93;;;15.00;99.90;;;;;;5133995;27;20023;-77
2022/04/23 02:32:42;;;;;;;37.67;8.98;;;14.90;99.90;;;;;;5125467;27;20040;-78
2022/04/23 02:35:09;;;;;;;42.53;8.77;;;15.00;99.90;;;;;;5126469;27;20027;-78
2022/04/23 02:37:35;;;;;;;41.13;8.88;;;15.00;99.90;;;;;;5133811;27;20027;-78
2022/04/23 02:40:02;;;;;;;41.25;8.23;;;15.00;99.90;;;;;;5134131;27;20027;-78
2022/04/23 02:42:29;;;;;;;40.33;8.68;;;15.00;99.90;;;;;;5119285;27;20023;-78
2022/04/23 02:44:55;;;;;;;48.17;8.77;;;15.00;99.90;;;;;;5132346;27;20413;-78
2022/04/23 02:47:21;;;;;;;41.85;9.15;;;15.00;99.90;;;;;;5134169;27;20027;-78
2022/04/23 02:49:47;;;;;;;37.30;7.57;;;15.00;99.90;;;;;;5133866;27;20019;-78
2022/04/23 02:52:13;;;;;;;40.58;8.50;;;15.00;99.90;;;;;;5133594;27;20032;-78
2022/04/23 02:54:38;;;;;;;36.67;8.18;;;15.00;99.90;;;;;;5129688;27;20028;-78
2022/04/23 02:57:04;;;;;;;42.70;8.73;;;15.00;99.90;;;;;;5133795;27;20027;-78
2022/04/23 02:59:30;;;;;;;50.03;9.57;;;14.90;99.90;;;;;;5133455;27;20126;-77
2022/04/23 03:01:56;;;;;;;44.40;9.02;;;14.90;99.90;;;;;;5133563;27;20541;-78
2022/04/23 03:04:22;;;;;;;40.88;8.82;;;14.90;99.90;;;;;;5133648;27;20038;-78
2022/04/23 03:06:47;;;;;;;40.60;9.60;;;14.90;99.90;;;;;;5115762;27;20023;-77
2022/04/23 03:09:15;;;;;;;38.78;8.98;;;15.00;99.90;;;;;;5134025;27;20080;-78
2022/04/23 03:11:41;;;;;;;40.95;9.98;;;14.90;99.90;;;;;;5124752;27;20194;-78
2022/04/23 03:14:07;;;;;;;43.15;9.25;;;14.90;99.90;;;;;;5124429;27;20015;-78
2022/04/23 03:16:32;;;;;;;49.47;8.68;;;14.90;99.90;;;;;;5133142;27;20420;-78
2022/04/23 03:18:58;;;;;;;49.33;9.68;;;14.90;99.90;;;;;;5133252;27;20039;-77
2022/04/23 03:21:24;;;;;;;51.40;8.70;;;15.00;99.90;;;;;;5119168;27;20055;-77
2022/04/23 03:23:50;;;;;;;45.15;9.38;;;14.90;99.90;;;;;;5131292;27;20083;-77
2022/04/23 03:26:16;;;;;;;43.13;9.48;;;14.90;99.90;;;;;;5133076;27;20030;-78
2022/04/23 03:28:42;;;;;;;40.35;8.60;;;14.90;99.90;;;;;;5132511;27;20569;-77
2022/04/23 03:31:11;;;;;;;42.38;8.90;;;14.90;99.90;;;;;;5132973;27;20382;-77
2022/04/23 03:33:37;;;;;;;42.42;9.35;;;14.90;99.90;;;;;;5129432;27;20084;-77
2022/04/23 03:36:03;;;;;;;51.63;9.85;;;14.90;99.90;;;;;;5133002;27;20027;-78
2022/04/23 03:38:28;;;;;;;62.00;11.70;;;15.00;99.90;;;;;;5133184;27;20114;-78
2022/04/23 03:40:55;;;;;;;53.60;10.48;;;14.90;99.90;;;;;;5132811;27;20098;-77
2022/04/23 03:43:23;;;;;;;58.28;9.90;;;15.00;99.90;;;;;;5132342;27;20023;-78
2022/04/23 03:45:49;;;;;;;66.28;12.15;;;15.00;99.90;;;;;;5132743;27;20110;-78
2022/04/23 03:48:14;;;;;;;58.97;10.57;;;14.90;99.90;;;;;;5133340;27;20626;-77
2022/04/23 03:50:41;;;;;;;59.85;11.15;;;14.90;99.90;;;;;;5124206;27;20016;-77
2022/04/23 03:53:08;;;;;;;69.47;11.07;;;14.90;99.90;;;;;;5124627;27;20524;-77
2022/04/23 03:55:35;;;;;;;57.38;11.10;;;14.90;99.90;;;;;;5128049;27;20023;-78
2022/04/23 03:58:01;;;;;;;58.28;11.52;;;14.90;99.90;;;;;;5132323;27;20035;-77
2022/04/23 04:00:28;;;;;;;63.38;11.65;;;14.80;99.90;;;;;;5117720;27;20385;-78
2022/04/23 04:02:55;;;;;;;69.18;12.50;;;14.80;99.90;;;;;;5116426;27;20028;-78
2022/04/23 04:05:22;;;;;;;56.72;10.98;;;14.80;99.90;;;;;;5126637;27;20030;-78
2022/04/23 04:07:49;;;;;;;79.97;11.98;;;14.80;99.90;;;;;;5132104;27;20542;-77
2022/04/23 04:10:19;;;;;;;62.75;11.55;;;14.80;99.90;;;;;;5132621;27;20027;-77
2022/04/23 04:12:46;;;;;;;66.20;12.10;;;14.70;99.90;;;;;;5131847;27;20035;-77
2022/04/23 04:15:15;;;;;;;59.38;11.68;;;14.70;99.90;;;;;;5133100;27;20031;-77
2022/04/23 04:17:41;;;;;;;60.28;12.25;;;14.70;99.90;;;;;;5132038;27;20019;-77
2022/04/23 04:20:12;;;;;;;56.10;11.38;;;14.70;99.90;;;;;;5131855;27;20477;-77
2022/04/23 04:22:39;;;;;;;57.03;11.40;;;14.80;99.90;;;;;;5132136;27;20050;-77
2022/04/23 04:25:06;;;;;;;60.50;11.45;;;14.80;99.90;;;;;;5114825;27;20015;-78
2022/04/23 04:27:33;;;;;;;62.67;11.52;;;14.70;99.90;;;;;;5132171;27;20027;-77
2022/04/23 04:30:00;;;;;;;57.97;12.10;;;14.70;99.90;;;;;;5120757;27;20054;-77
2022/04/23 04:32:26;;;;;;;63.72;11.30;;;14.70;99.90;;;;;;5126710;27;20117;-77
2022/04/23 04:34:51;;;;;;;59.70;11.73;;;14.70;99.90;;;;;;5131707;27;20121;-77
2022/04/23 04:37:18;;;;;;;49.80;12.40;;;14.70;99.90;;;;;;5132100;27;20037;-76
2022/04/23 04:39:44;;;;;;;55.50;10.52;;;14.70;99.90;;;;;;5115475;27;20020;-77
2022/04/23 04:42:11;;;;;;;53.30;11.23;;;14.70;99.90;;;;;;5130781;27;20026;-77
2022/04/23 04:44:38;;;;;;;56.97;10.38;;;14.70;99.90;;;;;;5131903;27;20034;-77
2022/04/23 04:47:05;;;;;;;60.53;10.38;;;14.70;99.90;;;;;;5131784;28;20023;-78
2022/04/23 04:49:31;;;;;;;51.95;9.52;;;14.60;99.90;;;;;;5132108;28;20033;-78
2022/04/23 04:51:56;;;;;;;53.50;10.40;;;14.70;99.90;;;;;;5131825;27;20028;-78
2022/04/23 04:54:22;;;;;;;45.80;9.57;;;14.70;99.90;;;;;;5129321;27;20502;-77
2022/04/23 04:56:52;;;;;;;50.55;9.57;;;14.70;99.90;;;;;;5129792;28;20122;-78
2022/04/23 04:59:20;;;;;;;46.38;10.32;;;14.70;99.90;;;;;;5131994;27;20477;-78
2022/04/23 05:01:47;;;;;;;64.93;10.20;;;14.70;99.90;;;;;;5131627;28;20556;-78
2022/04/23 05:04:13;;;;;;;53.47;10.05;;;14.70;99.90;;;;;;5131686;28;20031;-78
2022/04/23 05:06:39;;;;;;;58.78;11.38;;;14.70;99.90;;;;;;5131960;28;20027;-78
2022/04/23 05:09:05;;;;;;;69.05;10.15;;;14.70;99.90;;;;;;5119610;28;20027;-78
2022/04/23 05:11:31;;;;;;;59.33;11.07;;;14.80;99.90;;;;;;5127495;28;20039;-78
2022/04/23 05:13:57;;;;;;;52.72;10.63;;;14.70;99.90;;;;;;5131687;28;20050;-76
2022/04/23 05:16:22;;;;;;;52.25;10.50;;;14.70;99.90;;;;;;5131666;28;20393;-78
2022/04/23 05:18:48;;;;;;;42.30;10.13;;;14.70;99.90;;;;;;5115016;28;20502;-78
2022/04/23 05:21:17;;;;;;;46.70;9.68;;;14.60;99.90;;;;;;5132347;28;20509;-78
2022/04/23 05:23:42;;;;;;;56.38;10.20;;;14.70;99.90;;;;;;5130865;27;20028;-78
2022/04/23 05:26:09;;;;;;;50.97;9.93;;;14.70;99.90;;;;;;5131348;28;20035;-78
2022/04/23 05:28:35;;;;;;;48.30;9.85;;;14.70;99.90;;;;;;5131817;27;20023;-77
2022/04/23 05:31:02;;;;;;;43.15;9.30;;;14.70;99.90;;;;;;5131310;27;20041;-78
2022/04/23 05:33:28;;;;;;;54.35;10.32;;;14.70;99.90;;;;;;5131781;27;20039;-77
2022/04/23 05:35:53;;;;;;;59.15;10.73;;;14.70;99.90;;;;;;5131665;28;20391;-77
2022/04/23 05:38:20;;;;;;;54.67;10.45;;;14.70;99.90;;;;;;5133914;27;20023;-77
2022/04/23 05:40:50;;;;;;;50.47;9.50;;;14.80;99.90;;;;;;5135112;27;20076;-77
2022/04/23 05:43:16;;;;;;;39.17;8.10;;;14.70;99.90;;;;;;5135257;27;20023;-78
2022/04/23 05:45:43;;;;;;;55.60;9.65;;;14.70;99.90;;;;;;5135406;27;20027;-78
2022/04/23 05:48:09;;;;;;;58.05;9.80;;;14.80;99.90;;;;;;5123100;27;20481;-78
2022/04/23 05:50:35;;;;;;;59.33;10.02;;;14.70;99.90;;;;;;5131301;27;20103;-78
2022/04/23 05:53:00;;;;;;;64.60;9.65;;;14.70;99.90;;;;;;5134283;27;20042;-77
2022/04/23 05:55:26;;;;;;;55.30;10.40;;;14.70;99.90;;;;;;5130338;27;20106;-77
2022/04/23 05:57:52;;;;;;;64.18;10.68;;;14.80;99.90;;;;;;5118548;27;20058;-77
2022/04/23 06:00:18;;;;;;;61.38;9.60;;;14.80;99.90;;;;;;5119569;27;20019;-77
2022/04/23 06:02:44;;;;;;;59.63;9.93;;;14.80;99.90;;;;;;5132285;27;20018;-78
2022/04/23 06:05:10;;;;;;;49.97;10.23;;;14.80;99.90;;;;;;5134757;27;20023;-77
2022/04/23 06:07:36;;;;;;;60.42;10.82;;;14.80;99.90;;;;;;5134489;27;20442;-77
2022/04/23 06:10:03;;;;;;;54.13;9.38;;;14.70;99.90;;;;;;5134606;27;20019;-78
2022/04/23 06:12:29;;;;;;;65.65;10.32;;;14.80;99.90;;;;;;5134788;27;20540;-78
2022/04/23 06:14:55;;;;;;;64.82;9.73;;;14.80;99.90;;;;;;5134377;27;20035;-78
2022/04/23 06:17:25;;;;;;;56.42;9.55;;;14.80;99.90;;;;;;5134585;27;20119;-78
2022/04/23 06:19:52;;;;;;;65.90;9.73;;;14.80;99.90;;;;;;5134343;27;20043;-77
2022/04/23 06:22:19;;;;;;;58.40;9.48;;;14.80;99.90;;;;;;5134381;27;20076;-77
2022/04/23 06:24:45;;;;;;;61.58;9.27;;;14.90;99.90;;;;;;5134296;27;20015;-78
2022/04/23 06:27:11;;;;;;;48.83;9.95;;;14.90;99.90;;;;;;5122144;27;20043;-77
2022/04/23 06:29:38;;;;;;;51.42;9.38;;;14.90;99.90;;;;;;5130601;27;20023;-77
2022/04/23 06:32:04;;;;;;;50.15;9.50;;;14.90;99.90;;;;;;5133859;27;20033;-77
2022/04/23 06:34:30;;;;;;;43.95;9.35;;;15.00;99.90;;;;;;5134665;27;20015;-73
2022/04/23 06:36:56;;;;;;;57.40;9.52;;;15.00;99.90;;;;;;5116476;27;20379;-77
2022/04/23 06:39:21;;;;;;;54.85;10.02;;;15.00;99.90;;;;;;5122611;27;20058;-77
2022/04/23 06:41:47;;;;;;;50.50;10.48;;;15.10;99.90;;;;;;5124663;27;20024;-78
2022/04/23 06:44:13;;;;;;;56.92;10.02;;;15.10;99.90;;;;;;5133730;27;20485;-78
2022/04/23 06:46:39;;;;;;;50.50;9.18;;;15.10;99.90;;;;;;5123101;27;20055;-77
2022/04/23 06:49:05;;;;;;;48.22;9.43;;;15.20;99.90;;;;;;5132966;27;20409;-78
2022/04/23 06:51:37;;;;;;;54.70;9.73;;;15.30;99.90;;;;;;5134366;27;20468;-78
2022/04/23 06:54:03;;;;;;;41.05;7.72;;;15.30;99.90;;;;;;5133455;27;20027;-79
2022/04/23 06:56:30;;;;;;;42.58;8.50;;;15.20;99.90;;;;;;5133831;27;20520;-77
2022/04/23 06:58:56;;;;;;;50.28;9.80;;;15.20;99.90;;;;;;5126318;27;20022;-78
2022/04/23 07:01:21;;;;;;;51.47;9.63;;;15.30;99.90;;;;;;5119292;27;20471;-76
2022/04/23 07:03:47;;;;;;;61.65;9.98;;;15.30;99.90;;;;;;5133752;27;20023;-76
2022/04/23 07:06:16;;;;;;;47.80;7.75;;;15.30;99.90;;;;;;5120946;27;20020;-77
2022/04/23 07:08:51;;;;;;;43.88;8.77;;;15.20;99.90;;;;;;5130543;27;20082;-77
2022/04/23 07:11:17;;;;;;;55.55;7.78;;;15.20;99.90;;;;;;5133121;27;20413;-77
2022/04/23 07:13:43;;;;;;;48.67;8.77;;;15.20;99.90;;;;;;5133471;27;20034;-76
2022/04/23 07:16:09;;;;;;;49.80;8.13;;;15.10;99.90;;;;;;5117387;27;20023;-78
2022/04/23 07:18:39;;;;;;;51.58;10.60;;;15.10;99.90;;;;;;5129343;27;20098;-78
2022/04/23 07:21:05;;;;;;;51.85;8.18;;;15.20;99.90;;;;;;5132841;27;20076;-78
2022/04/23 07:26:16;;;;;;;41.67;7.50;;;15.10;99.90;;;;;;5133362;27;20573;-72
2022/04/23 07:28:42;;;;;;;55.53;7.93;;;15.10;99.90;;;;;;5132909;27;20027;-70
2022/04/23 07:31:07;;;;;;;44.08;7.47;;;15.20;99.90;;;;;;5126261;27;20061;-72
2022/04/23 07:39:01;;;;;;;44.42;7.85;;;15.10;99.90;;;;;;5133359;27;20587;-70
2022/04/23 07:41:27;;;;;;;36.72;7.50;;;15.00;99.90;;;;;;5132807;27;20023;-71
2022/04/23 07:43:54;;;;;;;43.88;9.68;;;14.90;99.90;;;;;;5131141;27;20038;-71
2022/04/23 07:46:19;;;;;;;45.67;7.88;;;14.90;99.90;;;;;;5118024;27;20023;-71
2022/04/23 07:48:46;;;;;;;57.80;9.63;;;14.90;99.90;;;;;;5132725;27;20046;-71
2022/04/23 07:51:12;;;;;;;56.00;10.65;;;14.90;99.90;;;;;;5133220;27;20038;-72
2022/04/23 07:53:38;;;;;;;46.38;8.40;;;14.90;99.90;;;;;;5124552;27;20031;-72
2022/04/23 07:56:04;;;;;;;55.67;8.48;;;14.90;99.90;;;;;;5124247;27;20024;-72
2022/04/23 07:58:30;;;;;;;56.40;9.35;;;14.90;99.90;;;;;;5132734;27;20026;-71
2022/04/23 08:00:56;;;;;;;49.55;10.38;;;14.90;99.90;;;;;;5132333;27;20027;-72
2022/04/23 08:03:22;;;;;;;52.35;9.02;;;14.90;99.90;;;;;;5131810;27;20477;-72
2022/04/23 08:05:47;;;;;;;45.70;9.02;;;14.90;99.90;;;;;;5132055;27;20019;-72
2022/04/23 08:08:17;;;;;;;59.38;9.55;;;15.00;99.90;;;;;;5132109;27;20027;-72
2022/04/23 08:10:47;;;;;;;49.75;9.20;;;15.00;99.90;;;;;;5123702;27;20493;-72
2022/04/23 08:13:13;;;;;;;62.55;9.40;;;15.00;99.90;;;;;;5126534;27;20035;-72
2022/04/23 08:15:39;;;;;;;56.63;8.70;;;15.00;99.90;;;;;;5129174;27;20397;-71
2022/04/23 08:18:06;;;;;;;53.13;8.60;;;15.10;99.90;;;;;;5127492;27;20698;-71
2022/04/23 08:20:32;;;;;;;61.65;11.30;;;15.10;99.90;;;;;;5125364;27;20058;-72
2022/04/23 08:22:58;;;;;;;57.67;12.57;;;15.10;99.90;;;;;;5126270;27;20039;-71
2022/04/23 08:25:24;;;;;;;63.40;8.95;;;15.10;99.90;;;;;;5125379;27;20473;-71
2022/04/23 08:27:55;;;;;;;55.50;8.98;;;15.10;99.90;;;;;;5128357;27;20027;-71
2022/04/23 08:30:37;;;;;;;57.88;9.57;;;15.00;99.90;;;;;;5127857;27;20087;-70
2022/04/23 08:33:03;;;;;;;69.05;11.52;;;15.00;99.90;;;;;;5124237;27;20090;-71
2022/04/23 08:35:29;;;;;;;64.97;10.80;;;15.00;99.90;;;;;;5125736;27;20030;-72
2022/04/23 08:37:55;;;;;;;55.78;9.25;;;15.00;99.90;;;;;;5126022;27;20031;-72
2022/04/23 08:40:21;;;;;;;58.38;10.57;;;15.00;99.90;;;;;;5125611;27;20051;-71
2022/04/23 08:42:47;;;;;;;57.97;10.57;;;15.00;99.90;;;;;;5127676;27;20031;-72
2022/04/23 08:45:13;;;;;;;55.28;11.20;;;15.10;99.90;;;;;;5126777;27;20027;-71
2022/04/23 08:47:46;;;;;;;55.53;8.88;;;15.10;99.90;;;;;;5124150;27;20529;-71
2022/04/23 08:50:12;;;;;;;66.30;11.65;;;15.10;99.90;;;;;;5126831;28;20084;-71
2022/04/23 08:52:41;;;;;;;58.75;9.82;;;15.20;99.90;;;;;;5124161;28;20043;-71
2022/04/23 08:55:08;;;;;;;68.43;9.52;;;15.10;99.90;;;;;;5109508;28;20370;-72
2022/04/23 08:57:36;;;;;;;57.17;9.50;;;15.20;99.90;;;;;;5127947;28;20035;-72
2022/04/23 09:00:08;;;;;;;60.67;10.93;;;15.10;99.90;;;;;;5125557;27;20036;-72
2022/04/23 09:02:35;;;;;;;50.65;10.25;;;15.20;99.90;;;;;;5124899;27;20058;-72
2022/04/23 09:05:02;;;;;;;63.35;10.40;;;15.20;99.90;;;;;;5125573;27;20027;-72
2022/04/23 09:07:29;;;;;;;70.28;10.00;;;15.20;99.90;;;;;;5127482;27;20073;-72
2022/04/23 09:09:57;;;;;;;57.65;9.88;;;15.20;99.90;;;;;;5130373;27;20362;-72
2022/04/23 09:12:25;;;;;;;67.70;10.15;;;15.20;99.90;;;;;;5131143;27;20046;-73
2022/04/23 09:15:04;;;;;;;72.22;10.07;;;15.20;99.90;;;;;;5132442;27;20469;-71
2022/04/23 09:25:47;;;;;;;66.68;9.55;;;15.30;99.90;;;;;;5118031;27;20041;-72
2022/04/23 09:28:27;;;;;;;51.38;9.23;;;15.40;99.90;;;;;;5130217;27;20042;-72
2022/04/23 09:30:55;;;;;;;71.28;11.18;;;15.40;99.90;;;;;;5130877;27;20027;-72
2022/04/23 09:33:28;;;;;;;64.10;10.23;;;15.30;99.90;;;;;;5130920;27;20027;-72
2022/04/23 09:36:01;;;;;;;63.38;9.98;;;15.30;99.90;;;;;;5129733;27;20100;-72
2022/04/23 09:38:29;;;;;;;68.53;10.95;;;15.30;99.90;;;;;;5124969;27;20015;-72
2022/04/23 09:40:59;;;;;;;83.55;10.70;;;15.30;99.90;;;;;;5130449;27;20039;-72
2022/04/23 09:43:32;;;;;;;47.97;9.48;;;15.40;99.90;;;;;;5129894;27;20579;-72
2022/04/23 09:46:06;;;;;;;64.18;10.98;;;15.40;99.90;;;;;;5130776;27;20038;-72
2022/04/23 09:48:32;;;;;;;59.72;10.70;;;15.40;99.90;;;;;;5131922;27;20031;-72
2022/04/23 09:50:59;;;;;;;65.43;10.18;;;15.40;99.90;;;;;;5130596;27;20379;-72
2022/04/23 09:53:28;;;;;;;60.92;10.23;;;15.50;99.90;;;;;;5119396;27;20119;-72
2022/04/23 09:55:59;;;;;;;48.42;9.20;;;15.50;99.90;;;;;;5118752;27;20560;-72
2022/04/23 09:58:27;;;;;;;57.00;9.73;;;15.50;99.90;;;;;;5128840;27;20637;-72
2022/04/23 10:00:53;;;;;;;57.17;8.98;;;15.70;99.90;;;;;;5129529;27;20519;-73
2022/04/23 10:03:23;;;;;;;54.15;9.38;;;15.90;99.90;;;;;;5127063;27;20030;-73
2022/04/23 10:05:49;;;;;;;53.95;9.60;;;16.00;99.90;;;;;;5121976;27;20118;-73
2022/04/23 10:08:17;;;;;;;67.85;10.02;;;16.10;99.90;;;;;;5125115;27;20076;-72
2022/04/23 10:11:04;;;;;;;72.93;10.02;;;16.00;99.90;;;;;;5123985;27;20043;-73
2022/04/23 10:13:30;;;;;;;66.10;9.98;;;15.90;99.90;;;;;;5113982;27;20035;-72
2022/04/23 10:15:58;;;;;;;63.15;8.88;;;15.90;99.90;;;;;;5130501;27;20027;-72
2022/04/23 10:18:24;;;;;;;46.58;7.93;;;16.00;99.90;;;;;;5128499;27;20072;-78
2022/04/23 10:21:00;;;;;;;51.30;8.95;;;16.10;99.90;;;;;;5134512;27;20031;-75
2022/04/23 10:23:32;;;;;;;52.80;7.75;;;16.20;99.90;;;;;;5133328;27;20027;-75
2022/04/23 10:26:45;;;;;;;59.78;9.20;;;16.40;99.90;;;;;;5134286;27;20027;-76
2022/04/23 10:29:16;;;;;;;64.00;8.35;;;16.40;99.90;;;;;;5050369;28;20539;-79
2022/04/23 10:31:42;;;;;;;55.92;7.13;;;16.40;99.90;;;;;;5050498;28;20145;-74
2022/04/23 10:34:33;;;;;;;51.58;9.38;;;16.50;99.90;;;;;;5035440;28;20025;-72
2022/04/23 10:37:29;;;;;;;55.28;8.38;;;16.60;99.90;;;;;;5048442;28;20025;-75
2022/04/23 10:39:55;;;;;;;50.45;7.93;;;16.60;99.90;;;;;;5048020;28;20103;-73
2022/04/23 10:42:25;;;;;;;56.53;8.07;;;16.60;99.90;;;;;;5036796;28;20116;-73
2022/04/23 10:44:55;;;;;;;60.33;8.25;;;16.40;99.90;;;;;;5038582;28;20092;-74
2022/04/23 10:47:30;;;;;;;55.10;9.18;;;16.40;99.90;;;;;;5038982;28;20531;-73
2022/04/23 10:50:22;;;;;;;54.50;9.13;;;16.40;99.90;;;;;;5039435;28;20091;-74
2022/04/23 10:52:50;;;;;;;66.93;9.02;;;16.40;99.90;;;;;;5038799;28;20068;-74
2022/04/23 10:55:17;;;;;;;69.50;9.30;;;16.20;99.90;;;;;;5035278;28;20029;-73
2022/04/23 10:57:53;;;;;;;60.28;11.05;;;16.20;99.90;;;;;;5033600;28;20054;-73
2022/04/23 11:00:20;;;;;;;63.75;9.85;;;16.10;99.90;;;;;;5036640;28;20036;-72
2022/04/23 11:02:56;;;;;;;68.47;9.90;;;16.20;99.90;;;;;;5037676;28;20456;-72
2022/04/23 11:14:37;;;;;;;66.10;9.80;;;16.60;99.90;;;;;;5133353;27;20066;-74
2022/04/23 11:17:03;;;;;;;56.10;10.70;;;16.40;99.90;;;;;;5125529;27;20043;-74
2022/04/23 11:19:30;;;;;;;67.32;9.73;;;16.40;99.90;;;;;;5132723;27;20390;-74
2022/04/23 11:21:56;;;;;;;48.25;7.65;;;16.30;99.90;;;;;;5132913;27;20027;-77
2022/04/23 11:24:24;;;;;;;53.65;9.40;;;16.30;99.90;;;;;;5133810;27;20032;-76
2022/04/23 11:26:51;;;;;;;65.47;9.55;;;16.30;99.90;;;;;;5132253;27;20023;-79
2022/04/23 11:29:17;;;;;;;65.20;10.75;;;16.30;99.90;;;;;;5132926;27;20054;-76
2022/04/23 11:31:53;;;;;;;53.15;8.90;;;16.30;99.90;;;;;;5131687;27;20035;-76
2022/04/23 11:34:19;;;;;;;63.65;9.45;;;16.30;99.90;;;;;;5131806;27;20443;-77
2022/04/23 11:36:45;;;;;;;61.38;7.53;;;16.40;99.90;;;;;;5132802;27;20366;-78
2022/04/23 11:39:13;;;;;;;59.67;10.18;;;16.30;99.90;;;;;;5120602;27;20028;-81
2022/04/23 11:41:51;;;;;;;58.92;8.95;;;16.30;99.90;;;;;;5128484;27;20033;-76
2022/04/23 11:47:03;;;;;;;63.05;9.45;;;16.30;99.90;;;;;;5129896;27;20405;-74
2022/04/23 11:49:31;;;;;;;79.55;11.18;;;16.40;99.90;;;;;;5119111;27;20030;-74
2022/04/23 11:52:04;;;;;;;60.70;10.23;;;16.40;99.90;;;;;;5132474;27;20031;-75
2022/04/23 11:54:43;;;;;;;66.85;9.80;;;16.20;99.90;;;;;;5132901;27;20027;-78
2022/04/23 11:57:11;;;;;;;48.15;9.50;;;16.20;99.90;;;;;;5128790;27;20027;-75
2022/04/23 11:59:42;;;;;;;60.60;9.55;;;16.20;99.90;;;;;;5124433;27;20485;-74
2022/04/23 12:02:25;;;;;;;57.78;8.68;;;16.10;99.90;;;;;;5123957;27;20509;-75
2022/04/23 12:04:52;;;;;;;55.95;9.55;;;16.00;99.90;;;;;;5132266;27;20516;-74
2022/04/23 12:07:19;;;;;;;57.90;10.27;;;16.00;99.90;;;;;;5132238;27;20026;-74
2022/04/23 12:09:52;;;;;;;50.42;8.02;;;16.00;99.90;;;;;;5130056;27;20027;-75
2022/04/23 12:12:24;;;;;;;67.33;11.17;;;15.80;99.90;;;;;;5127265;27;20409;-75
2022/04/23 12:14:52;;;;;;;69.22;10.35;;;15.60;99.90;;;;;;5129576;27;20068;-74
2022/04/23 12:17:22;;;;;;;72.10;11.70;;;15.50;99.90;;;;;;5131339;27;20031;-73
2022/04/23 12:19:49;;;;;;;72.22;10.98;;;15.40;99.90;;;;;;5131549;27;20104;-74
2022/04/23 12:22:26;;;;;;;70.13;11.43;;;15.30;99.90;;;;;;5131473;27;20062;-76
2022/04/23 12:25:09;;;;;;;62.50;10.70;;;15.20;99.90;;;;;;5113400;27;20134;-73
2022/04/23 12:27:59;;;;;;;65.95;11.80;;;15.10;99.90;;;;;;5116577;27;20038;-74
2022/04/23 12:42:06;;;;;;;71.80;11.90;;;14.70;99.90;;;;;;5129441;27;20030;-75
2022/04/23 12:44:35;;;;;;;78.35;13.75;;;14.50;99.90;;;;;;5119348;27;20039;-75
2022/04/23 12:47:03;;;;;;;74.03;13.95;;;14.40;99.90;;;;;;5120141;27;20441;-74
2022/04/23 12:49:49;;;;;;;60.30;11.13;;;14.30;99.90;;;;;;5122293;27;20432;-75
2022/04/23 12:52:21;;;;;;;69.13;11.73;;;14.00;99.90;;;;;;5115890;28;20097;-74
2022/04/23 12:55:12;;;;;;;55.47;9.38;;;13.90;99.90;;;;;;5119009;28;20031;-75
2022/04/23 12:57:39;;;;;;;39.65;7.40;;;13.50;99.90;;;;;;5127466;28;20031;-74
2022/04/23 13:00:06;;;;;;;24.77;5.18;;;13.00;99.90;;;;;;5131173;28;20076;-74
2022/04/23 13:02:36;;;;;;;21.70;4.95;;;12.70;99.90;;;;;;5130743;27;20084;-75
2022/04/23 13:05:09;;;;;;;36.45;6.47;;;12.80;99.90;;;;;;5119343;27;20042;-75
2022/04/23 13:10:19;;;;;;;;;;;13.20;99.90;;;;;;5109503;28;20042;-74
2022/04/23 13:12:45;;;;;;;33.53;4.95;;;13.10;99.90;;;;;;5126995;27;19915;-74
2022/04/23 13:15:11;;;;;;;31.33;4.53;;;12.80;99.90;;;;;;5126013;27;20057;-75
2022/04/23 13:17:38;;;;;;;40.60;4.72;;;12.80;99.90;;;;;;5124848;27;20027;-75
2022/04/23 13:20:07;;;;;;;30.35;4.05;;;12.70;99.90;;;;;;5124830;27;20441;-75
2022/04/23 13:22:32;;;;;;;23.85;3.90;;;12.70;99.90;;;;;;5123170;28;20460;-75